createdAt,value
2023-02-27T00:00:58.084Z,62.60
2023-02-27T00:03:25.749Z,62.70
2023-02-27T00:05:53.072Z,62.70
2023-02-27T00:08:20.165Z,63.20
2023-02-27T00:10:47.279Z,63.40
2023-02-27T00:13:14.399Z,63.60
2023-02-27T00:15:41.534Z,63.80
2023-02-27T00:18:08.694Z,64.00
2023-02-27T00:20:38.258Z,64.10
2023-02-27T00:23:06.831Z,64.00
2023-02-27T00:25:35.468Z,63.90
2023-02-27T00:28:02.889Z,64.00
2023-02-27T00:30:29.994Z,64.00
2023-02-27T00:32:57.079Z,64.00
2023-02-27T00:35:24.187Z,63.80
2023-02-27T00:37:51.319Z,63.90
2023-02-27T00:40:18.785Z,64.10
2023-02-27T00:42:46.410Z,64.40
2023-02-27T00:45:13.685Z,64.80
2023-02-27T00:47:41.035Z,64.30
2023-02-27T00:50:08.918Z,64.60
2023-02-27T00:52:36.038Z,64.40
2023-02-27T00:55:03.310Z,64.40
2023-02-27T00:57:31.011Z,64.30
2023-02-27T00:59:58.173Z,64.70
2023-02-27T01:02:26.005Z,64.80
2023-02-27T01:04:53.129Z,65.00
2023-02-27T01:07:20.294Z,64.90
2023-02-27T01:09:47.358Z,64.80
2023-02-27T01:12:14.532Z,65.20
2023-02-27T01:14:42.189Z,65.30
2023-02-27T01:17:09.536Z,65.20
2023-02-27T01:19:36.711Z,65.80
2023-02-27T01:22:03.821Z,65.70
2023-02-27T01:24:30.967Z,65.30
2023-02-27T01:26:58.169Z,65.70
2023-02-27T01:29:25.283Z,65.30
2023-02-27T01:31:52.728Z,65.50
2023-02-27T01:34:19.934Z,65.30
2023-02-27T01:36:47.059Z,65.40
2023-02-27T01:39:14.163Z,65.80
2023-02-27T01:41:41.301Z,65.60
2023-02-27T01:44:10.939Z,66.00
2023-02-27T01:46:38.445Z,66.10
2023-02-27T01:49:33.250Z,66.40
2023-02-27T01:52:06.114Z,66.20
2023-02-27T01:54:37.015Z,66.20
2023-02-27T01:57:06.798Z,66.90
2023-02-27T01:59:40.409Z,67.20
2023-02-27T02:02:14.678Z,67.30
2023-02-27T02:04:42.804Z,67.50
2023-02-27T02:07:14.869Z,67.30
2023-02-27T02:09:45.428Z,67.70
2023-02-27T02:12:15.118Z,67.80
2023-02-27T02:14:42.379Z,68.00
2023-02-27T02:17:18.646Z,67.90
2023-02-27T02:20:13.976Z,67.50
2023-02-27T02:23:20.879Z,68.00
2023-02-27T02:26:15.040Z,67.70
2023-02-27T02:28:43.396Z,67.40
2023-02-27T02:31:41.727Z,67.80
2023-02-27T02:34:27.408Z,67.90
2023-02-27T02:37:12.925Z,68.60
2023-02-27T02:39:48.903Z,68.90
2023-02-27T02:42:25.904Z,69.50
2023-02-27T02:45:11.291Z,69.50
2023-02-27T02:47:49.925Z,70.00
2023-02-27T02:50:28.596Z,69.80
2023-02-27T02:53:18.113Z,70.00
2023-02-27T02:55:53.573Z,70.00
2023-02-27T02:58:23.670Z,69.70
2023-02-27T03:01:05.402Z,70.00
2023-02-27T03:03:36.987Z,70.00
2023-02-27T03:06:10.386Z,70.00
2023-02-27T03:08:43.499Z,69.80
2023-02-27T03:11:10.867Z,70.00
2023-02-27T03:13:45.730Z,70.10
2023-02-27T03:16:47.161Z,70.30
2023-02-27T03:19:28.962Z,70.60
2023-02-27T03:22:17.271Z,70.40
2023-02-27T03:24:48.873Z,70.80
2023-02-27T03:27:18.733Z,70.60
2023-02-27T03:30:07.784Z,70.70
2023-02-27T03:33:03.986Z,71.20
2023-02-27T03:35:50.174Z,70.60
2023-02-27T03:38:41.278Z,70.60
2023-02-27T03:41:11.037Z,70.30
2023-02-27T03:43:52.967Z,70.40
2023-02-27T03:46:24.823Z,70.30
2023-02-27T03:48:52.128Z,69.80
2023-02-27T03:51:24.518Z,70.60
2023-02-27T03:54:04.837Z,70.90
2023-02-27T03:57:02.688Z,70.80
2023-02-27T03:59:31.908Z,70.60
2023-02-27T04:02:00.719Z,70.30
2023-02-27T04:04:31.859Z,70.10
2023-02-27T04:07:22.684Z,70.30
2023-02-27T04:10:31.708Z,70.30
2023-02-27T04:13:32.241Z,70.70
2023-02-27T04:16:15.777Z,70.30
2023-02-27T04:19:08.408Z,70.70
2023-02-27T04:21:54.639Z,70.70
2023-02-27T04:24:45.933Z,70.40
2023-02-27T04:27:37.579Z,70.00
2023-02-27T04:30:32.725Z,70.10
2023-02-27T04:33:50.529Z,69.80
2023-02-27T04:36:17.653Z,69.50
2023-02-27T04:38:49.605Z,69.40
2023-02-27T04:41:19.740Z,69.00
2023-02-27T04:43:48.276Z,68.90
2023-02-27T04:46:17.163Z,69.00
2023-02-27T04:49:08.838Z,68.70
2023-02-27T04:51:44.821Z,68.80
2023-02-27T04:54:16.768Z,68.60
2023-02-27T04:56:52.795Z,68.30
2023-02-27T04:59:30.104Z,68.10
2023-02-27T05:02:02.637Z,67.90
2023-02-27T05:04:35.760Z,67.80
2023-02-27T05:07:09.522Z,67.70
2023-02-27T05:09:49.437Z,67.60
2023-02-27T05:12:29.444Z,67.50
2023-02-27T05:15:36.901Z,67.60
2023-02-27T05:18:12.872Z,67.30
2023-02-27T05:21:10.665Z,66.90
2023-02-27T05:24:11.026Z,66.60
2023-02-27T05:26:50.546Z,66.60
2023-02-27T05:29:42.651Z,66.70
2023-02-27T05:32:19.463Z,66.20
2023-02-27T05:34:57.151Z,66.10
2023-02-27T05:37:42.353Z,64.40
2023-02-27T05:40:13.927Z,65.00
2023-02-27T05:42:46.008Z,65.20
2023-02-27T05:45:23.029Z,64.10
2023-02-27T05:48:00.524Z,63.90
2023-02-27T05:50:30.886Z,63.80
2023-02-27T05:53:02.115Z,63.60
2023-02-27T05:55:41.033Z,62.80
2023-02-27T05:58:31.037Z,63.00
2023-02-27T06:01:07.100Z,63.40
2023-02-27T06:03:36.391Z,63.40
2023-02-27T06:06:07.314Z,63.20
2023-02-27T06:08:35.281Z,62.70
2023-02-27T06:11:02.947Z,63.10
2023-02-27T06:13:30.066Z,62.90
2023-02-27T06:15:57.144Z,62.90
2023-02-27T06:18:24.326Z,62.90
2023-02-27T06:20:51.434Z,62.90
2023-02-27T06:23:18.958Z,62.70
2023-02-27T06:25:47.118Z,62.50
2023-02-27T06:28:14.294Z,62.90
2023-02-27T06:30:41.560Z,62.80
2023-02-27T06:33:09.414Z,62.60
2023-02-27T06:35:36.584Z,62.50
2023-02-27T06:38:05.092Z,62.40
2023-02-27T06:40:32.294Z,62.40
2023-02-27T06:42:59.385Z,63.10
2023-02-27T06:45:26.548Z,62.40
2023-02-27T06:47:53.675Z,62.40
2023-02-27T06:50:21.004Z,62.60
2023-02-27T06:52:48.160Z,62.10
2023-02-27T06:55:21.454Z,61.50
2023-02-27T06:57:49.263Z,61.60
2023-02-27T07:00:17.697Z,61.40
2023-02-27T07:02:44.903Z,60.80
2023-02-27T07:05:12.238Z,60.30
2023-02-27T07:07:39.692Z,60.00
2023-02-27T07:10:11.809Z,60.80
2023-02-27T07:12:39.859Z,59.70
2023-02-27T07:15:08.196Z,60.40
2023-02-27T07:17:35.652Z,59.20
2023-02-27T07:20:03.017Z,59.40
2023-02-27T07:22:32.586Z,59.10
2023-02-27T07:24:59.754Z,58.90
2023-02-27T07:27:26.948Z,58.50
2023-02-27T07:29:54.172Z,58.70
2023-02-27T07:32:21.416Z,58.90
2023-02-27T07:34:48.622Z,58.10
2023-02-27T07:37:15.771Z,58.70
2023-02-27T07:39:42.864Z,57.90
2023-02-27T07:42:09.953Z,57.20
2023-02-27T07:44:37.201Z,57.60
2023-02-27T07:47:04.401Z,57.10
2023-02-27T07:49:31.489Z,57.70
2023-02-27T07:51:58.624Z,57.00
2023-02-27T07:54:26.929Z,57.00
2023-02-27T07:56:54.048Z,56.90
2023-02-27T07:59:21.187Z,57.30
2023-02-27T08:01:48.278Z,56.90
2023-02-27T08:04:15.421Z,56.70
2023-02-27T08:06:42.650Z,56.40
2023-02-27T08:09:10.947Z,56.50
2023-02-27T08:11:38.154Z,56.80
2023-02-27T08:14:05.523Z,56.30
2023-02-27T08:16:33.234Z,56.00
2023-02-27T08:19:01.381Z,55.60
2023-02-27T08:21:29.860Z,55.50
2023-02-27T08:23:57.345Z,55.60
2023-02-27T08:26:24.557Z,55.60
2023-02-27T08:28:51.889Z,55.30
2023-02-27T08:31:19.224Z,55.10
2023-02-27T08:33:46.356Z,55.20
2023-02-27T08:36:13.577Z,54.10
2023-02-27T08:38:40.753Z,54.30
2023-02-27T08:41:07.860Z,54.50
2023-02-27T08:43:35.022Z,54.70
2023-02-27T08:46:02.158Z,54.90
2023-02-27T08:48:29.284Z,53.70
2023-02-27T08:50:57.913Z,52.80
2023-02-27T08:53:25.384Z,53.50
2023-02-27T08:55:53.353Z,51.20
2023-02-27T08:58:20.907Z,52.50
2023-02-27T09:00:48.153Z,53.00
2023-02-27T09:03:15.371Z,51.80
2023-02-27T09:05:42.866Z,51.00
2023-02-27T09:08:10.228Z,51.60
2023-02-27T09:10:37.345Z,49.30
2023-02-27T09:13:04.643Z,49.50
2023-02-27T09:15:34.563Z,49.70
2023-02-27T09:18:03.285Z,50.00
2023-02-27T09:20:31.899Z,50.10
2023-02-27T09:22:59.828Z,50.50
2023-02-27T09:25:27.956Z,49.20
2023-02-27T09:27:55.802Z,50.20
2023-02-27T09:30:23.498Z,49.10
2023-02-27T09:32:51.226Z,48.10
2023-02-27T09:35:20.542Z,46.90
2023-02-27T09:37:49.666Z,47.70
2023-02-27T09:40:29.654Z,47.20
2023-02-27T09:43:02.388Z,48.50
2023-02-27T09:45:31.776Z,47.90
2023-02-27T09:48:34.813Z,47.10
2023-02-27T09:51:02.735Z,47.90
2023-02-27T09:53:34.007Z,47.30
2023-02-27T09:56:20.320Z,45.90
2023-02-27T09:58:56.485Z,46.50
2023-02-27T10:01:41.030Z,46.70
2023-02-27T10:04:26.936Z,46.80
2023-02-27T10:07:02.760Z,46.80
2023-02-27T10:09:40.910Z,44.90
2023-02-27T10:12:30.348Z,45.80
2023-02-27T10:15:20.347Z,45.70
2023-02-27T10:17:54.673Z,44.50
2023-02-27T10:20:54.725Z,44.50
2023-02-27T10:23:37.400Z,43.90
2023-02-27T10:26:05.476Z,44.50
2023-02-27T10:28:33.834Z,44.60
2023-02-27T10:31:02.420Z,44.30
2023-02-27T10:33:37.214Z,43.50
2023-02-27T10:36:15.935Z,44.30
2023-02-27T10:39:00.890Z,44.00
2023-02-27T10:41:29.138Z,44.20
2023-02-27T10:44:00.602Z,44.70
2023-02-27T10:46:32.197Z,45.10
2023-02-27T10:49:05.661Z,45.10
2023-02-27T10:51:38.369Z,44.20
2023-02-27T10:54:25.544Z,44.00
2023-02-27T10:56:53.937Z,42.80
2023-02-27T10:59:23.958Z,43.50
2023-02-27T11:02:16.699Z,43.90
2023-02-27T11:04:53.825Z,44.30
2023-02-27T11:07:39.057Z,44.00
2023-02-27T11:10:15.214Z,42.60
2023-02-27T11:13:03.932Z,44.00
2023-02-27T11:15:36.665Z,42.70
2023-02-27T11:18:24.759Z,42.40
2023-02-27T11:20:51.997Z,42.70
2023-02-27T11:23:25.680Z,41.70
2023-02-27T11:26:11.724Z,42.20
2023-02-27T11:28:38.917Z,43.10
2023-02-27T11:31:15.169Z,43.50
2023-02-27T11:33:57.021Z,43.10
2023-02-27T11:36:45.866Z,43.20
2023-02-27T11:39:39.392Z,43.60
2023-02-27T11:42:17.446Z,42.50
2023-02-27T11:44:55.745Z,43.20
2023-02-27T11:47:30.381Z,44.30
2023-02-27T11:50:12.896Z,43.50
2023-02-27T11:52:47.363Z,43.70
2023-02-27T11:55:18.250Z,41.40
2023-02-27T11:57:50.327Z,41.80
2023-02-27T12:00:42.070Z,42.10
2023-02-27T12:03:49.208Z,41.30
2023-02-27T12:06:25.053Z,40.70
2023-02-27T12:09:00.798Z,40.90
2023-02-27T12:11:37.721Z,41.50
2023-02-27T12:14:09.242Z,41.30
2023-02-27T12:16:51.113Z,41.80
2023-02-27T12:19:33.744Z,41.90
2023-02-27T12:22:09.411Z,40.80
2023-02-27T12:24:46.433Z,40.80
2023-02-27T12:27:19.052Z,41.30
2023-02-27T12:30:02.748Z,40.70
2023-02-27T12:32:45.159Z,40.90
2023-02-27T12:35:27.982Z,40.90
2023-02-27T12:37:56.389Z,40.60
2023-02-27T12:40:39.795Z,40.50
2023-02-27T12:43:21.931Z,40.10
2023-02-27T12:46:07.462Z,39.80
2023-02-27T12:48:40.752Z,39.40
2023-02-27T12:51:36.213Z,40.00
2023-02-27T12:54:41.184Z,40.10
2023-02-27T12:57:08.242Z,41.10
2023-02-27T12:59:54.087Z,40.70
2023-02-27T13:02:30.182Z,40.40
2023-02-27T13:05:16.330Z,38.80
2023-02-27T13:07:57.684Z,38.50
2023-02-27T13:10:33.394Z,39.60
2023-02-27T13:13:19.002Z,39.70
2023-02-27T13:15:55.332Z,39.90
2023-02-27T13:18:35.904Z,40.40
2023-02-27T13:21:10.630Z,40.60
2023-02-27T13:23:47.765Z,40.70
2023-02-27T13:26:22.758Z,40.70
2023-02-27T13:28:51.641Z,40.60
2023-02-27T13:31:52.967Z,40.70
2023-02-27T13:34:28.742Z,40.80
2023-02-27T13:37:08.155Z,40.90
2023-02-27T13:39:47.269Z,40.70
2023-02-27T13:42:30.733Z,40.40
2023-02-27T13:45:06.554Z,40.60
2023-02-27T13:47:43.687Z,40.70
2023-02-27T13:50:23.077Z,40.90
2023-02-27T13:52:50.702Z,40.70
2023-02-27T13:55:38.766Z,40.50
2023-02-27T13:58:08.698Z,40.40
2023-02-27T14:00:38.164Z,40.30
2023-02-27T14:03:17.607Z,40.10
2023-02-27T14:05:47.128Z,40.60
2023-02-27T14:08:20.193Z,40.60
2023-02-27T14:10:55.737Z,41.00
2023-02-27T14:13:50.610Z,40.90
2023-02-27T14:16:44.063Z,41.00
2023-02-27T14:19:20.015Z,41.20
2023-02-27T14:22:03.898Z,41.40
2023-02-27T14:24:38.236Z,40.90
2023-02-27T14:27:27.119Z,41.10
2023-02-27T14:30:03.539Z,41.50
2023-02-27T14:32:34.135Z,40.80
2023-02-27T14:35:05.136Z,40.90
2023-02-27T14:37:32.932Z,41.30
2023-02-27T14:40:03.209Z,41.50
2023-02-27T14:42:54.430Z,41.80
2023-02-27T14:45:24.560Z,42.30
2023-02-27T14:47:53.148Z,41.80
2023-02-27T14:50:34.223Z,41.80
2023-02-27T14:53:02.188Z,41.30
2023-02-27T14:55:37.098Z,41.40
2023-02-27T14:58:17.537Z,41.30
2023-02-27T15:01:09.313Z,42.30
2023-02-27T15:03:42.113Z,42.60
2023-02-27T15:06:21.823Z,43.30
2023-02-27T15:08:52.509Z,43.40
2023-02-27T15:11:24.675Z,43.50
2023-02-27T15:14:00.678Z,43.70
2023-02-27T15:16:38.047Z,44.30
2023-02-27T15:19:20.575Z,43.90
2023-02-27T15:21:51.510Z,44.20
2023-02-27T15:24:24.771Z,44.30
2023-02-27T15:27:10.527Z,44.30
2023-02-27T15:29:44.782Z,44.30
2023-02-27T15:32:21.452Z,44.10
2023-02-27T15:34:48.768Z,44.10
2023-02-27T15:37:26.393Z,44.30
2023-02-27T15:39:54.944Z,44.50
2023-02-27T15:42:30.172Z,44.50
2023-02-27T15:44:58.818Z,44.60
2023-02-27T15:47:30.898Z,44.60
2023-02-27T15:50:29.673Z,44.70
2023-02-27T15:53:14.204Z,44.60
2023-02-27T15:55:47.421Z,44.70
2023-02-27T15:58:34.195Z,44.60
2023-02-27T16:01:19.095Z,44.70
2023-02-27T16:03:51.916Z,45.00
2023-02-27T16:06:27.567Z,45.10
2023-02-27T16:09:15.160Z,45.10
2023-02-27T16:11:43.563Z,45.30
2023-02-27T16:14:42.742Z,45.70
2023-02-27T16:17:30.702Z,45.60
2023-02-27T16:20:02.116Z,45.70
2023-02-27T16:22:30.528Z,45.60
2023-02-27T16:25:10.264Z,45.90
2023-02-27T16:27:38.345Z,46.40
2023-02-27T16:30:11.174Z,45.90
2023-02-27T16:32:44.034Z,45.90
2023-02-27T16:35:21.795Z,45.80
2023-02-27T16:37:50.546Z,45.90
2023-02-27T16:40:25.114Z,46.00
2023-02-27T16:42:52.932Z,46.00
2023-02-27T16:45:22.950Z,46.10
2023-02-27T16:47:53.756Z,46.00
2023-02-27T16:50:47.197Z,46.00
2023-02-27T16:53:14.507Z,46.20
2023-02-27T16:55:43.519Z,46.30
2023-02-27T16:58:15.520Z,46.40
2023-02-27T17:00:42.818Z,46.30
2023-02-27T17:03:10.112Z,46.70
2023-02-27T17:05:37.380Z,46.80
2023-02-27T17:08:04.727Z,46.60
2023-02-27T17:10:32.818Z,47.00
2023-02-27T17:13:00.539Z,47.10
2023-02-27T17:15:29.149Z,47.00
2023-02-27T17:18:00.120Z,47.00
2023-02-27T17:20:30.153Z,47.80
2023-02-27T17:22:57.805Z,47.40
2023-02-27T17:25:26.320Z,47.90
2023-02-27T17:27:53.683Z,47.50
2023-02-27T17:30:23.963Z,47.60
2023-02-27T17:32:51.045Z,47.60
2023-02-27T17:35:18.330Z,47.70
2023-02-27T17:37:45.447Z,47.80
2023-02-27T17:40:13.845Z,47.80
2023-02-27T17:42:41.059Z,47.80
2023-02-27T17:45:09.685Z,47.80
2023-02-27T17:47:39.143Z,48.00
2023-02-27T17:50:06.860Z,47.80
2023-02-27T17:52:37.624Z,47.80
2023-02-27T17:55:05.951Z,47.80
2023-02-27T17:57:36.265Z,47.80
2023-02-27T18:00:06.535Z,47.80
2023-02-27T18:02:33.688Z,47.80
2023-02-27T18:05:01.925Z,47.80
2023-02-27T18:07:29.029Z,47.70
2023-02-27T18:09:56.518Z,47.50
2023-02-27T18:12:29.792Z,47.50
2023-02-27T18:14:59.425Z,47.50
2023-02-27T18:17:26.640Z,47.40
2023-02-27T18:19:54.418Z,47.50
2023-02-27T18:22:22.221Z,47.00
2023-02-27T18:24:52.632Z,47.10
2023-02-27T18:27:20.466Z,47.10
2023-02-27T18:29:49.385Z,47.20
2023-02-27T18:32:17.075Z,47.10
2023-02-27T18:34:45.117Z,46.90
2023-02-27T18:37:12.256Z,46.90
2023-02-27T18:39:39.541Z,46.80
2023-02-27T18:42:07.201Z,46.70
2023-02-27T18:44:34.281Z,46.70
2023-02-27T18:47:01.452Z,46.60
2023-02-27T18:49:28.577Z,46.70
2023-02-27T18:51:55.673Z,46.80
2023-02-27T18:54:22.854Z,46.40
2023-02-27T18:56:53.200Z,46.60
2023-02-27T18:59:20.468Z,46.50
2023-02-27T19:01:47.606Z,46.10
2023-02-27T19:04:14.778Z,46.20
2023-02-27T19:06:42.343Z,46.20
2023-02-27T19:09:16.290Z,46.30
2023-02-27T19:11:46.821Z,46.20
2023-02-27T19:14:14.664Z,46.20
2023-02-27T19:16:42.606Z,45.80
2023-02-27T19:19:10.975Z,46.10
2023-02-27T19:21:38.476Z,45.90
2023-02-27T19:24:07.715Z,45.60
2023-02-27T19:26:34.895Z,45.40
2023-02-27T19:29:02.803Z,45.30
2023-02-27T19:31:30.660Z,45.50
2023-02-27T19:33:58.297Z,45.80
2023-02-27T19:36:27.818Z,45.70
2023-02-27T19:38:56.363Z,46.00
2023-02-27T19:41:24.641Z,46.00
2023-02-27T19:43:52.280Z,46.50
2023-02-27T19:46:24.029Z,46.60
2023-02-27T19:48:55.493Z,47.00
2023-02-27T19:51:23.197Z,47.60
2023-02-27T19:53:50.770Z,48.00
2023-02-27T19:56:21.470Z,48.00
2023-02-27T19:58:49.132Z,48.00
2023-02-27T20:01:28.590Z,47.90
2023-02-27T20:03:56.347Z,48.10
2023-02-27T20:06:44.019Z,48.30
2023-02-27T20:09:16.029Z,48.30
2023-02-27T20:11:44.276Z,48.10
2023-02-27T20:14:13.941Z,48.10
2023-02-27T20:16:41.314Z,48.10
2023-02-27T20:19:12.310Z,48.10
2023-02-27T20:21:39.540Z,48.40
2023-02-27T20:24:06.953Z,49.00
2023-02-27T20:26:37.549Z,49.10
2023-02-27T20:29:11.480Z,48.70
2023-02-27T20:31:40.282Z,49.00
2023-02-27T20:34:10.892Z,48.50
2023-02-27T20:36:39.737Z,49.10
2023-02-27T20:39:07.585Z,48.60
2023-02-27T20:41:35.391Z,48.90
2023-02-27T20:44:04.433Z,48.30
2023-02-27T20:46:31.791Z,47.70
2023-02-27T20:49:01.418Z,47.70
2023-02-27T20:51:35.139Z,47.80
2023-02-27T20:54:04.954Z,48.30
2023-02-27T20:56:35.326Z,48.20
2023-02-27T20:59:05.541Z,48.90
2023-02-27T21:01:33.309Z,48.40
2023-02-27T21:04:00.701Z,49.00
2023-02-27T21:06:27.913Z,49.00
2023-02-27T21:08:56.817Z,48.70
2023-02-27T21:11:30.076Z,48.70
2023-02-27T21:13:59.851Z,48.40
2023-02-27T21:16:26.982Z,48.40
2023-02-27T21:18:56.580Z,48.30
2023-02-27T21:21:29.986Z,48.20
2023-02-27T21:23:58.235Z,48.20
2023-02-27T21:26:35.433Z,48.20
2023-02-27T21:29:12.337Z,48.50
2023-02-27T21:31:41.893Z,48.30
2023-02-27T21:34:13.206Z,48.40
2023-02-27T21:36:43.002Z,48.60
2023-02-27T21:39:30.511Z,48.60
2023-02-27T21:41:59.636Z,48.70
2023-02-27T21:44:26.804Z,48.60
2023-02-27T21:46:54.382Z,48.70
2023-02-27T21:49:23.896Z,48.70
2023-02-27T21:51:51.178Z,48.70
2023-02-27T21:54:19.544Z,48.90
2023-02-27T21:56:48.421Z,49.20
2023-02-27T21:59:16.952Z,49.10
2023-02-27T22:01:47.467Z,49.10
2023-02-27T22:04:16.677Z,49.10
2023-02-27T22:06:43.843Z,49.40
2023-02-27T22:09:11.336Z,49.40
2023-02-27T22:11:40.838Z,49.50
2023-02-27T22:14:09.516Z,49.90
2023-02-27T22:16:37.146Z,49.50
2023-02-27T22:19:10.013Z,50.00
2023-02-27T22:21:38.368Z,50.30
2023-02-27T22:24:06.258Z,49.90
2023-02-27T22:26:33.909Z,49.60
2023-02-27T22:29:01.371Z,49.70
2023-02-27T22:31:32.251Z,49.70
2023-02-27T22:34:03.550Z,49.70
2023-02-27T22:36:32.710Z,49.50
2023-02-27T22:39:00.694Z,49.50
2023-02-27T22:41:31.111Z,49.40
2023-02-27T22:44:00.140Z,49.50
2023-02-27T22:46:31.303Z,49.90
2023-02-27T22:49:01.937Z,49.80
2023-02-27T22:51:30.410Z,49.70
2023-02-27T22:54:01.772Z,49.60
2023-02-27T22:56:29.549Z,49.70
2023-02-27T22:58:57.039Z,49.60
2023-02-27T23:01:26.638Z,49.60
2023-02-27T23:03:57.284Z,49.60
2023-02-27T23:06:27.078Z,49.50
2023-02-27T23:08:54.389Z,49.20
2023-02-27T23:11:21.806Z,49.20
2023-02-27T23:13:49.790Z,49.30
2023-02-27T23:16:17.629Z,48.90
2023-02-27T23:18:56.910Z,49.10
2023-02-27T23:21:29.819Z,49.00
2023-02-27T23:24:00.240Z,49.00
2023-02-27T23:26:28.527Z,49.10
2023-02-27T23:28:56.734Z,48.90
2023-02-27T23:31:24.317Z,48.70
2023-02-27T23:33:51.599Z,48.80
2023-02-27T23:36:18.815Z,48.70
2023-02-27T23:38:48.848Z,48.70
2023-02-27T23:41:20.820Z,48.70
2023-02-27T23:44:11.544Z,48.50
2023-02-27T23:46:39.016Z,48.40
2023-02-27T23:49:06.420Z,48.40
2023-02-27T23:51:33.913Z,48.60
2023-02-27T23:54:01.189Z,48.70
2023-02-27T23:56:30.400Z,48.80
2023-02-27T23:59:00.106Z,48.80
